createdAt,value
2022-10-03T00:01:03.066Z,97478.69
2022-10-03T00:03:36.762Z,97300.53
2022-10-03T00:06:10.783Z,97370.09
2022-10-03T00:08:46.728Z,97480.00
2022-10-03T00:11:26.278Z,97488.25
2022-10-03T00:14:18.029Z,97493.78
2022-10-03T00:17:09.670Z,97459.03
2022-10-03T00:19:42.395Z,97483.88
2022-10-03T00:22:20.779Z,97285.88
2022-10-03T00:25:00.648Z,97287.19
2022-10-03T00:27:37.133Z,97481.94
2022-10-03T00:30:16.688Z,97483.25
2022-10-03T00:32:55.789Z,97455.50
2022-10-03T00:35:41.522Z,97476.25
2022-10-03T00:38:36.628Z,97459.00
2022-10-03T00:41:41.503Z,97439.59
2022-10-03T00:44:32.270Z,97336.19
2022-10-03T00:47:25.281Z,97432.09
2022-10-03T00:50:13.332Z,97423.28
2022-10-03T00:53:25.335Z,97444.78
2022-10-03T00:56:10.884Z,97432.22
2022-10-03T00:58:56.183Z,97432.94
2022-10-03T01:01:29.429Z,97450.09
2022-10-03T01:04:10.986Z,97261.41
2022-10-03T01:07:01.241Z,97378.41
2022-10-03T01:09:42.408Z,97462.13
2022-10-03T01:12:47.714Z,97415.47
2022-10-03T01:15:34.654Z,97424.47
2022-10-03T01:18:21.837Z,97425.69
2022-10-03T01:21:24.329Z,97429.53
2022-10-03T01:24:26.869Z,97439.03
2022-10-03T01:27:01.773Z,97390.47
2022-10-03T01:29:59.428Z,97453.25
2022-10-03T01:33:09.256Z,97430.22
2022-10-03T01:35:48.120Z,97431.56
2022-10-03T01:38:27.447Z,97388.78
2022-10-03T01:41:03.983Z,97237.53
2022-10-03T01:43:35.093Z,97242.75
2022-10-03T01:46:17.362Z,97446.59
2022-10-03T01:48:52.544Z,97434.78
2022-10-03T01:51:27.510Z,97420.09
2022-10-03T01:54:26.291Z,97275.88
2022-10-03T01:56:58.506Z,97428.25
2022-10-03T01:59:35.201Z,97461.41
2022-10-03T02:02:10.452Z,97380.31
2022-10-03T02:04:48.364Z,97244.00
2022-10-03T02:07:43.434Z,97437.75
2022-10-03T02:10:32.536Z,97431.34
2022-10-03T02:13:09.377Z,97258.09
2022-10-03T02:15:49.085Z,97458.38
2022-10-03T02:18:48.840Z,97424.38
2022-10-03T02:21:25.130Z,97395.59
2022-10-03T02:24:06.584Z,97381.34
2022-10-03T02:26:57.196Z,97452.69
2022-10-03T02:29:50.249Z,97432.09
2022-10-03T02:32:54.516Z,97469.72
2022-10-03T02:35:46.037Z,97437.06
2022-10-03T02:38:59.676Z,97390.78
2022-10-03T02:41:48.345Z,97451.53
2022-10-03T02:44:40.368Z,97501.28
2022-10-03T02:47:59.976Z,97440.28
2022-10-03T02:51:04.645Z,97448.75
2022-10-03T02:53:59.398Z,97453.69
2022-10-03T02:56:48.228Z,97284.19
2022-10-03T02:59:43.094Z,97257.09
2022-10-03T03:02:34.225Z,97450.94
2022-10-03T03:05:24.040Z,97398.13
2022-10-03T03:08:13.955Z,97454.53
2022-10-03T03:11:08.614Z,97453.81
2022-10-03T03:14:32.408Z,97429.44
2022-10-03T03:17:41.571Z,97444.75
2022-10-03T03:20:23.323Z,97429.44
2022-10-03T03:23:42.569Z,97429.44
2022-10-03T03:26:28.868Z,97379.50
2022-10-03T03:29:49.990Z,97432.09
2022-10-03T03:32:27.149Z,97400.03
2022-10-03T03:35:13.772Z,97359.97
2022-10-03T03:38:25.595Z,97439.28
2022-10-03T03:41:14.474Z,97256.50
2022-10-03T03:44:19.626Z,97284.53
2022-10-03T03:47:01.537Z,97442.97
2022-10-03T03:49:42.432Z,97460.91
2022-10-03T03:52:21.250Z,97430.41
2022-10-03T03:55:08.258Z,97449.81
2022-10-03T03:57:50.927Z,97429.78
2022-10-03T04:00:31.411Z,97396.94
2022-10-03T04:03:01.351Z,97459.44
2022-10-03T04:06:02.355Z,97425.75
2022-10-03T04:08:59.205Z,97278.78
2022-10-03T04:11:54.444Z,97448.66
2022-10-03T04:14:45.806Z,97434.66
2022-10-03T04:18:02.778Z,97415.94
2022-10-03T04:21:00.886Z,97397.59
2022-10-03T04:23:46.065Z,97457.69
2022-10-03T04:26:43.782Z,97419.63
2022-10-03T04:29:17.144Z,97426.63
2022-10-03T04:31:57.938Z,97422.25
2022-10-03T04:35:08.142Z,97422.25
2022-10-03T04:37:47.593Z,97410.91
2022-10-03T04:40:33.628Z,97413.56
2022-10-03T04:43:37.415Z,97422.47
2022-10-03T04:46:14.355Z,97275.56
2022-10-03T04:48:46.843Z,97403.50
2022-10-03T04:51:21.309Z,97436.38
2022-10-03T04:54:44.542Z,97428.19
2022-10-03T04:57:20.352Z,97448.91
2022-10-03T04:59:55.382Z,97454.44
2022-10-03T05:02:35.160Z,97437.81
2022-10-03T05:05:21.390Z,97422.06
2022-10-03T05:08:16.843Z,97421.50
2022-10-03T05:10:50.475Z,97252.59
2022-10-03T05:13:39.528Z,97424.38
2022-10-03T05:16:23.598Z,97367.75
2022-10-03T05:19:10.048Z,97428.84
2022-10-03T05:22:03.517Z,97419.13
2022-10-03T05:24:36.175Z,97246.72
2022-10-03T05:27:20.945Z,97427.34
2022-10-03T05:30:07.399Z,97397.13
2022-10-03T05:32:44.483Z,97373.47
2022-10-03T05:35:36.127Z,97420.16
2022-10-03T05:38:24.458Z,97421.84
2022-10-03T05:41:30.352Z,97442.81
2022-10-03T05:44:23.128Z,97305.94
2022-10-03T05:47:32.472Z,97238.44
2022-10-03T05:50:21.053Z,97433.00
2022-10-03T05:53:06.718Z,97411.06
2022-10-03T05:55:46.276Z,97445.06
2022-10-03T05:58:16.063Z,97417.34
2022-10-03T06:01:01.894Z,97224.16
2022-10-03T06:03:56.872Z,97403.63
2022-10-03T06:06:45.509Z,97423.75
2022-10-03T06:09:34.475Z,97439.66
2022-10-03T06:12:10.925Z,97397.16
2022-10-03T06:15:04.417Z,97410.22
2022-10-03T06:17:56.927Z,97232.00
2022-10-03T06:20:38.939Z,97404.53
2022-10-03T06:23:18.041Z,97405.75
2022-10-03T06:26:03.874Z,97412.63
2022-10-03T06:28:33.820Z,97426.91
2022-10-03T06:31:43.229Z,97412.22
2022-10-03T06:34:41.811Z,97435.84
2022-10-03T06:37:51.787Z,97401.13
2022-10-03T06:40:43.294Z,97435.56
2022-10-03T06:43:47.453Z,97418.69
2022-10-03T06:46:51.864Z,97390.88
2022-10-03T06:49:57.323Z,97429.53
2022-10-03T06:52:34.066Z,97415.47
2022-10-03T06:55:04.532Z,97436.25
2022-10-03T06:57:56.284Z,97407.06
2022-10-03T07:00:43.199Z,97418.31
2022-10-03T07:03:48.116Z,97232.31
2022-10-03T07:06:33.551Z,97411.09
2022-10-03T07:09:15.705Z,97402.78
2022-10-03T07:12:09.692Z,97409.31
2022-10-03T07:15:03.870Z,97405.47
2022-10-03T07:17:55.554Z,97395.25
2022-10-03T07:20:33.122Z,97399.47
2022-10-03T07:23:12.357Z,97351.66
2022-10-03T07:26:05.537Z,97393.03
2022-10-03T07:29:14.216Z,97396.94
2022-10-03T07:31:44.566Z,97252.63
2022-10-03T07:34:32.133Z,97344.13
2022-10-03T07:37:51.664Z,97211.69
2022-10-03T07:40:40.840Z,97385.91
2022-10-03T07:43:44.711Z,97383.16
2022-10-03T07:46:46.691Z,97392.94
2022-10-03T07:49:27.032Z,97398.97
2022-10-03T07:52:33.245Z,97385.66
2022-10-03T07:55:00.226Z,97426.63
2022-10-03T07:57:43.957Z,97414.53
2022-10-03T08:00:16.827Z,97297.13
2022-10-03T08:03:02.405Z,97388.81
2022-10-03T08:05:41.817Z,97392.44
2022-10-03T08:08:11.821Z,97378.78
2022-10-03T08:11:03.443Z,97390.03
2022-10-03T08:14:04.797Z,97379.41
2022-10-03T08:16:52.613Z,97392.44
2022-10-03T08:19:22.505Z,97394.38
2022-10-03T08:22:14.420Z,97324.13
2022-10-03T08:25:12.405Z,97263.69
2022-10-03T08:28:00.356Z,97373.13
2022-10-03T08:30:57.967Z,97355.50
2022-10-03T08:33:37.397Z,97385.69
2022-10-03T08:36:16.730Z,97407.63
2022-10-03T08:39:02.442Z,97385.41
2022-10-03T08:41:48.127Z,97402.06
2022-10-03T08:44:33.366Z,97383.94
2022-10-03T08:47:09.624Z,97383.00
2022-10-03T08:50:05.304Z,97372.38
2022-10-03T08:53:00.759Z,97387.38
2022-10-03T08:55:27.712Z,97387.13
2022-10-03T08:57:57.814Z,97385.34
2022-10-03T09:00:40.590Z,97213.88
2022-10-03T09:03:39.261Z,97417.06
2022-10-03T09:06:24.961Z,97391.72
2022-10-03T09:09:22.902Z,97386.38
2022-10-03T09:12:18.386Z,97342.84
2022-10-03T09:15:07.425Z,97205.34
2022-10-03T09:18:13.293Z,97392.06
2022-10-03T09:21:08.103Z,97400.84
2022-10-03T09:24:18.689Z,97243.75
2022-10-03T09:26:51.760Z,97369.13
2022-10-03T09:30:15.614Z,97377.97
2022-10-03T09:33:10.494Z,97357.66
2022-10-03T09:35:40.339Z,97380.09
2022-10-03T09:38:28.883Z,97367.69
2022-10-03T09:41:10.830Z,97377.47
2022-10-03T09:43:57.186Z,97385.69
2022-10-03T09:47:20.723Z,97366.13
2022-10-03T09:49:53.339Z,97386.16
2022-10-03T09:52:29.218Z,97351.72
2022-10-03T09:55:12.750Z,97188.69
2022-10-03T09:57:48.405Z,97366.31
2022-10-03T10:00:22.995Z,97364.75
2022-10-03T10:03:01.893Z,97403.16
2022-10-03T10:05:34.905Z,97391.47
2022-10-03T10:08:13.909Z,97372.88
2022-10-03T10:11:38.295Z,97367.34
2022-10-03T10:14:26.618Z,97368.19
2022-10-03T10:17:31.294Z,97370.00
2022-10-03T10:20:18.754Z,97336.44
2022-10-03T10:23:05.744Z,97212.41
2022-10-03T10:25:51.384Z,97355.50
2022-10-03T10:28:48.579Z,97291.81
2022-10-03T10:31:34.380Z,97370.94
2022-10-03T10:34:13.639Z,97366.97
2022-10-03T10:36:59.332Z,97354.41
2022-10-03T10:39:39.684Z,97367.59
2022-10-03T10:42:28.390Z,97352.97
2022-10-03T10:45:43.199Z,97372.41
2022-10-03T10:48:34.920Z,97339.94
2022-10-03T10:51:27.685Z,97345.63
2022-10-03T10:54:24.982Z,97342.72
2022-10-03T10:57:17.489Z,97318.81
2022-10-03T10:59:56.571Z,97385.19
2022-10-03T11:03:01.175Z,97343.94
2022-10-03T11:05:46.891Z,97337.53
2022-10-03T11:08:33.260Z,97347.06
2022-10-03T11:11:41.955Z,97345.59
2022-10-03T11:14:46.804Z,97349.69
2022-10-03T11:18:08.567Z,97351.38
2022-10-03T11:20:48.265Z,97380.94
2022-10-03T11:23:36.718Z,97347.66
2022-10-03T11:26:34.051Z,97346.56
2022-10-03T11:29:23.308Z,97349.47
2022-10-03T11:31:59.940Z,97190.91
2022-10-03T11:34:51.793Z,97374.31
2022-10-03T11:37:29.968Z,97296.50
2022-10-03T11:39:59.444Z,97341.75
2022-10-03T11:42:51.868Z,97277.06
2022-10-03T11:45:26.108Z,97340.41
2022-10-03T11:48:17.040Z,97299.28
2022-10-03T11:51:20.426Z,97332.56
2022-10-03T11:54:30.440Z,97343.66
2022-10-03T12:00:18.560Z,97339.47
2022-10-03T12:03:07.733Z,97365.75
2022-10-03T12:05:49.520Z,97333.66
2022-10-03T12:08:54.889Z,97256.84
2022-10-03T12:11:29.581Z,97122.72
2022-10-03T12:14:29.510Z,97333.41
2022-10-03T12:17:06.099Z,97341.03
2022-10-03T12:20:03.965Z,97337.38
2022-10-03T12:22:51.817Z,97334.50
2022-10-03T12:25:29.093Z,97359.59
2022-10-03T12:28:18.436Z,97253.19
2022-10-03T12:30:55.505Z,97142.00
2022-10-03T12:33:41.408Z,97332.81
2022-10-03T12:36:16.654Z,97323.41
2022-10-03T12:39:19.326Z,97285.66
2022-10-03T12:42:17.364Z,97344.16
2022-10-03T12:45:12.425Z,97349.72
2022-10-03T12:48:10.440Z,97339.81
2022-10-03T12:50:55.210Z,97353.56
2022-10-03T12:54:02.843Z,97336.78
2022-10-03T12:56:42.953Z,97329.91
2022-10-03T12:59:31.689Z,97334.25
2022-10-03T13:02:23.617Z,97337.03
2022-10-03T13:05:05.591Z,97335.34
2022-10-03T13:07:53.037Z,97328.69
2022-10-03T13:10:32.983Z,97282.63
2022-10-03T13:13:09.037Z,97359.34
2022-10-03T13:15:55.567Z,97274.19
2022-10-03T13:18:43.042Z,97165.19
2022-10-03T13:21:43.855Z,97310.88
2022-10-03T13:24:32.535Z,97327.50
2022-10-03T13:27:12.506Z,97320.75
2022-10-03T13:29:44.109Z,97297.09
2022-10-03T13:32:31.438Z,97342.94
2022-10-03T13:35:21.429Z,97193.59
2022-10-03T13:38:26.938Z,97299.03
2022-10-03T13:41:12.643Z,97322.09
2022-10-03T13:43:46.213Z,97273.22
2022-10-03T13:46:19.983Z,97273.47
2022-10-03T13:49:01.949Z,97227.84
2022-10-03T13:51:47.562Z,97334.75
2022-10-03T13:54:21.456Z,97247.44
2022-10-03T13:57:02.033Z,97068.94
2022-10-03T13:59:39.221Z,97287.94
2022-10-03T14:02:43.838Z,97310.63
2022-10-03T14:05:39.697Z,97136.97
2022-10-03T14:08:25.782Z,97242.13
2022-10-03T14:11:31.750Z,97317.97
2022-10-03T14:14:34.907Z,97324.13
2022-10-03T14:17:11.651Z,97286.34
2022-10-03T14:19:55.601Z,97122.94
2022-10-03T14:22:32.563Z,97323.66
2022-10-03T14:25:25.254Z,97317.97
2022-10-03T14:27:55.706Z,97179.66
2022-10-03T14:31:05.642Z,97274.66
2022-10-03T14:33:41.891Z,97331.47
2022-10-03T14:36:30.583Z,97331.47
2022-10-03T14:39:22.005Z,97339.78
2022-10-03T14:41:52.236Z,97131.00
2022-10-03T14:44:35.673Z,97134.25
2022-10-03T14:47:09.716Z,97332.81
2022-10-03T14:49:54.991Z,97243.53
2022-10-03T14:52:39.857Z,97327.97
2022-10-03T14:55:17.954Z,97183.03
2022-10-03T14:58:09.300Z,97192.66
2022-10-03T15:01:02.131Z,97350.03
2022-10-03T15:04:00.142Z,97324.44
2022-10-03T15:06:54.184Z,97340.28
2022-10-03T15:09:50.137Z,97314.69
2022-10-03T15:12:28.475Z,97365.09
2022-10-03T15:15:07.837Z,97282.06
2022-10-03T15:17:46.005Z,97347.88
2022-10-03T15:20:13.967Z,97307.78
2022-10-03T15:22:49.849Z,97311.06
2022-10-03T15:25:39.967Z,97314.03
2022-10-03T15:28:14.388Z,97345.31
2022-10-03T15:30:43.590Z,97204.53
2022-10-03T15:33:25.528Z,97323.28
2022-10-03T15:35:59.341Z,96777.16
2022-10-03T15:38:35.587Z,97312.94
2022-10-03T15:41:11.595Z,97369.09
2022-10-03T15:43:46.536Z,97187.84
2022-10-03T15:46:44.348Z,97368.22
2022-10-03T15:49:25.457Z,97282.97
2022-10-03T15:51:55.381Z,97200.13
2022-10-03T15:54:26.497Z,97405.59
2022-10-03T15:57:00.036Z,97386.81
2022-10-03T15:59:45.255Z,97373.50
2022-10-03T16:02:26.004Z,97398.94
2022-10-03T16:04:57.514Z,97388.44
2022-10-03T16:07:30.515Z,97405.84
2022-10-03T16:10:25.058Z,97367.75
2022-10-03T16:13:23.660Z,97417.84
2022-10-03T16:16:13.398Z,97429.41
2022-10-03T16:18:52.139Z,97436.34
2022-10-03T16:21:47.090Z,97454.44
2022-10-03T16:24:36.729Z,97455.66
2022-10-03T16:27:14.362Z,97372.50
2022-10-03T16:29:50.000Z,97474.19
2022-10-03T16:32:23.013Z,97271.28
2022-10-03T16:34:50.645Z,97292.78
2022-10-03T16:37:26.988Z,97333.66
2022-10-03T16:40:07.558Z,97489.41
2022-10-03T16:42:58.974Z,97334.13
2022-10-03T16:45:41.533Z,97325.47
2022-10-03T16:48:46.003Z,97480.59
2022-10-03T16:51:39.927Z,97364.72
2022-10-03T16:54:14.045Z,97515.53
2022-10-03T16:56:48.906Z,97546.13
2022-10-03T16:59:21.073Z,97498.63
2022-10-03T17:01:56.378Z,97506.63
2022-10-03T17:04:25.567Z,97555.91
2022-10-03T17:06:56.266Z,97417.25
2022-10-03T17:09:46.461Z,97563.06
2022-10-03T17:12:20.210Z,97558.69
2022-10-03T17:14:48.981Z,97535.91
2022-10-03T17:17:46.601Z,97550.31
2022-10-03T17:20:16.438Z,97588.44
2022-10-03T17:23:01.650Z,97575.91
2022-10-03T17:25:49.563Z,97585.69
2022-10-03T17:28:41.500Z,97429.91
2022-10-03T17:31:34.896Z,97587.13
2022-10-03T17:34:11.511Z,97440.06
2022-10-03T17:37:02.910Z,97594.25
2022-10-03T17:39:38.609Z,97607.97
2022-10-03T17:42:18.970Z,97627.19
2022-10-03T17:45:01.661Z,97604.78
2022-10-03T17:48:10.651Z,97596.31
2022-10-03T17:51:02.986Z,97531.28
2022-10-03T17:53:32.283Z,97597.78
2022-10-03T17:56:16.462Z,97509.88
2022-10-03T17:58:49.681Z,97579.72
2022-10-03T18:01:20.334Z,97557.91
2022-10-03T18:03:58.322Z,97425.19
2022-10-03T18:06:35.468Z,97636.22
2022-10-03T18:09:18.839Z,97602.72
2022-10-03T18:11:49.987Z,97556.59
2022-10-03T18:14:39.807Z,97606.66
2022-10-03T18:17:20.149Z,97613.78
2022-10-03T18:19:47.602Z,97614.97
2022-10-03T18:22:24.226Z,97418.78
2022-10-03T18:24:56.742Z,97614.97
2022-10-03T18:27:39.176Z,97441.59
2022-10-03T18:30:17.786Z,97585.56
2022-10-03T18:32:46.822Z,97658.94
2022-10-03T18:35:17.522Z,97656.59
2022-10-03T18:37:44.338Z,97644.38
2022-10-03T18:40:14.435Z,97637.53
2022-10-03T18:42:45.784Z,97451.34
2022-10-03T18:45:33.849Z,97602.44
2022-10-03T18:48:07.867Z,97641.63
2022-10-03T18:50:41.480Z,97647.16
2022-10-03T18:53:21.185Z,97667.97
2022-10-03T18:55:59.349Z,97647.72
2022-10-03T18:58:41.732Z,97625.00
2022-10-03T19:01:24.994Z,97653.25
2022-10-03T19:04:00.583Z,97619.63
2022-10-03T19:06:33.430Z,97506.16
2022-10-03T19:09:09.786Z,97629.78
2022-10-03T19:11:43.304Z,97597.19
2022-10-03T19:14:16.515Z,97502.78
2022-10-03T19:17:21.441Z,97665.34
2022-10-03T19:20:31.772Z,97624.22
2022-10-03T19:22:58.765Z,97699.56
2022-10-03T19:25:27.734Z,97672.47
2022-10-03T19:28:02.361Z,97556.28
2022-10-03T19:30:32.106Z,97668.69
2022-10-03T19:33:07.174Z,97707.84
2022-10-03T19:35:39.409Z,97703.75
2022-10-03T19:38:13.060Z,97689.94
2022-10-03T19:40:55.983Z,97496.34
2022-10-03T19:43:43.238Z,97694.16
2022-10-03T19:46:22.706Z,97720.34
2022-10-03T19:49:02.695Z,97622.34
2022-10-03T19:51:29.801Z,97527.75
2022-10-03T19:53:58.194Z,97685.28
2022-10-03T19:56:27.498Z,97655.97
2022-10-03T19:59:15.573Z,97685.84
2022-10-03T20:01:48.417Z,97723.72
2022-10-03T20:04:36.955Z,97670.56
2022-10-03T20:07:17.416Z,97610.75
2022-10-03T20:09:57.390Z,97521.75
2022-10-03T20:12:30.696Z,97717.31
2022-10-03T20:15:03.580Z,97743.03
2022-10-03T20:17:32.488Z,97561.78
2022-10-03T20:20:08.568Z,97713.66
2022-10-03T20:22:37.403Z,97539.44
2022-10-03T20:25:07.619Z,97695.28
2022-10-03T20:27:46.439Z,97709.84
2022-10-03T20:30:31.716Z,97723.56
2022-10-03T20:32:59.654Z,97728.34
2022-10-03T20:35:54.057Z,97710.44
2022-10-03T20:38:47.318Z,97668.75
2022-10-03T20:41:29.664Z,97694.69
2022-10-03T20:44:35.988Z,97720.47
2022-10-03T20:47:17.700Z,97545.56
2022-10-03T20:49:51.455Z,97536.66
2022-10-03T20:52:21.089Z,97545.81
2022-10-03T20:54:54.158Z,97693.78
2022-10-03T20:57:34.449Z,97730.22
2022-10-03T21:00:12.548Z,97726.72
2022-10-03T21:02:39.580Z,97733.16
2022-10-03T21:05:19.246Z,97546.53
2022-10-03T21:07:55.532Z,97736.50
2022-10-03T21:10:30.100Z,97696.69
2022-10-03T21:12:59.517Z,97639.53
2022-10-03T21:15:29.757Z,97741.28
2022-10-03T21:17:57.908Z,97771.25
2022-10-03T21:20:33.787Z,97551.19
2022-10-03T21:23:05.076Z,97733.72
2022-10-03T21:25:35.638Z,97701.41
2022-10-03T21:28:04.364Z,97711.53
2022-10-03T21:31:08.842Z,97742.13
2022-10-03T21:34:17.791Z,97737.03
2022-10-03T21:36:44.546Z,97737.78
2022-10-03T21:39:57.239Z,97733.09
2022-10-03T21:42:43.617Z,97765.09
2022-10-03T21:45:19.177Z,97537.72
2022-10-03T21:47:54.166Z,97649.53
2022-10-03T21:50:27.588Z,97756.16
2022-10-03T21:53:19.561Z,97515.53
2022-10-03T21:56:13.881Z,97743.97
2022-10-03T21:58:43.749Z,97768.88
2022-10-03T22:01:35.197Z,97598.41
2022-10-03T22:04:15.402Z,97575.91
2022-10-03T22:07:15.740Z,97760.28
2022-10-03T22:09:53.936Z,97761.56
2022-10-03T22:12:22.346Z,97750.34
2022-10-03T22:15:19.773Z,97756.34
2022-10-03T22:17:51.721Z,97777.16
2022-10-03T22:20:22.874Z,97580.16
2022-10-03T22:23:37.422Z,97763.50
2022-10-03T22:26:10.419Z,97786.91
2022-10-03T22:28:46.400Z,97759.28
2022-10-03T22:31:19.265Z,97784.00
2022-10-03T22:33:55.028Z,97786.75
2022-10-03T22:36:22.263Z,97792.28
2022-10-03T22:38:50.942Z,97711.44
2022-10-03T22:41:25.265Z,97590.16
2022-10-03T22:43:54.761Z,97696.94
2022-10-03T22:46:26.600Z,97775.56
2022-10-03T22:48:58.608Z,97764.50
2022-10-03T22:51:26.001Z,97594.66
2022-10-03T22:53:58.219Z,97588.41
2022-10-03T22:56:38.093Z,97779.63
2022-10-03T22:59:09.499Z,97790.38
2022-10-03T23:01:39.649Z,97786.63
2022-10-03T23:04:12.659Z,97741.66
2022-10-03T23:07:02.870Z,97782.38
2022-10-03T23:09:43.087Z,97787.91
2022-10-03T23:12:11.660Z,97784.13
2022-10-03T23:14:47.363Z,97613.41
2022-10-03T23:17:32.968Z,97787.19
2022-10-03T23:20:12.027Z,97785.72
2022-10-03T23:22:43.512Z,97791.81
2022-10-03T23:25:21.477Z,97649.63
2022-10-03T23:28:22.396Z,97818.31
2022-10-03T23:30:51.981Z,97730.41
2022-10-03T23:33:39.039Z,97802.03
2022-10-03T23:36:18.685Z,97781.63
2022-10-03T23:38:45.445Z,97631.28
2022-10-03T23:41:14.587Z,97685.28
2022-10-03T23:43:44.410Z,97837.56
2022-10-03T23:46:15.632Z,97810.66
2022-10-03T23:48:46.622Z,97817.50
2022-10-03T23:51:18.688Z,97747.22
2022-10-03T23:53:54.516Z,97749.03
2022-10-03T23:56:21.309Z,97823.03
2022-10-03T23:58:57.655Z,97721.69
